Time;durP1;ratioP1;P1;durP2;ratioP2;P2;SDS_P1;SDS_P2;PMS_P1;PMS_P2;Temp;Humidity;BMP_temperature;BMP_pressure;BME280_temperature;BME280_humidity;BME280_pressure;Samples;Min_cycle;Max_cycle;Signal;HPM_P1;HPM_P2
2021/04/01 00:02:28;;;;;;;7.32;4.63;;;;;;;11.58;48.72;96866.47;5095420;28;20043;-75
2021/04/01 00:04:55;;;;;;;6.63;4.72;;;;;;;11.53;48.67;96863.72;5096275;28;20044;-75
2021/04/01 00:07:22;;;;;;;7.15;4.75;;;;;;;11.48;48.59;96862.72;5095619;28;20044;-74
2021/04/01 00:09:49;;;;;;;6.50;5.40;;;;;;;11.43;48.73;96865.19;5095363;28;20469;-74
2021/04/01 00:12:19;;;;;;;5.05;4.55;;;;;;;11.37;48.84;96864.22;5095814;28;20047;-74
2021/04/01 00:14:45;;;;;;;6.43;4.50;;;;;;;11.32;49.05;96856.19;5095373;28;20036;-74
2021/04/01 00:17:13;;;;;;;6.53;5.03;;;;;;;11.28;49.18;96852.38;5095110;28;20507;-74
2021/04/01 00:19:39;;;;;;;5.47;4.90;;;;;;;11.26;49.23;96855.19;5095483;28;20036;-74
2021/04/01 00:22:05;;;;;;;8.90;5.30;;;;;;;11.24;49.28;96848.56;5094491;28;20074;-74
2021/04/01 00:24:32;;;;;;;6.13;5.03;;;;;;;11.23;49.45;96849.56;5095289;28;20052;-74
2021/04/01 00:26:58;;;;;;;7.72;4.90;;;;;;;11.20;49.58;96839.50;5095454;28;20043;-74
2021/04/01 00:29:25;;;;;;;7.45;4.93;;;;;;;11.18;49.79;96850.19;5095013;28;20471;-74
2021/04/01 00:31:52;;;;;;;6.28;4.93;;;;;;;11.17;49.89;96851.19;5095018;28;20059;-74
2021/04/01 00:34:19;;;;;;;6.47;4.95;;;;;;;11.14;49.87;96836.69;5095021;28;20046;-74
2021/04/01 00:36:45;;;;;;;6.28;4.85;;;;;;;11.13;50.18;96844.78;5094943;28;20040;-74
2021/04/01 00:39:11;;;;;;;6.93;4.70;;;;;;;11.12;50.18;96843.16;5094635;28;20044;-74
2021/04/01 00:41:39;;;;;;;7.60;5.35;;;;;;;11.10;50.32;96843.38;5094721;28;20036;-74
2021/04/01 00:44:06;;;;;;;5.97;5.18;;;;;;;11.07;50.49;96841.19;5093502;28;20056;-74
2021/04/01 00:46:33;;;;;;;5.78;5.13;;;;;;;11.07;50.63;96832.50;5094494;28;20039;-74
2021/04/01 00:48:59;;;;;;;7.85;5.70;;;;;;;11.06;50.72;96834.31;5095067;28;20476;-74
2021/04/01 00:51:28;;;;;;;6.88;5.15;;;;;;;11.04;50.96;96831.09;5094127;28;20396;-74
2021/04/01 00:53:54;;;;;;;8.73;5.60;;;;;;;11.05;51.15;96837.16;5094602;28;20044;-75
2021/04/01 00:56:23;;;;;;;5.78;4.95;;;;;;;11.04;51.37;96835.53;5094139;28;20036;-74
2021/04/01 00:58:50;;;;;;;6.80;5.80;;;;;;;11.03;51.32;96840.00;5094470;28;20028;-74
2021/04/01 01:03:43;;;;;;;7.35;5.28;;;;;;;11.03;51.55;96831.31;5093285;28;20428;-74
2021/04/01 01:06:09;;;;;;;8.48;5.35;;;;;;;11.03;51.67;96831.31;5093954;28;20044;-74
2021/04/01 01:08:35;;;;;;;6.60;5.22;;;;;;;11.02;51.53;96833.13;5094076;28;20032;-74
2021/04/01 01:11:02;;;;;;;7.88;5.85;;;;;;;11.00;51.70;96824.66;5094366;28;20050;-74
2021/04/01 01:13:31;;;;;;;10.57;5.20;;;;;;;10.98;52.16;96826.69;5094096;28;20061;-74
2021/04/01 01:15:58;;;;;;;8.02;5.38;;;;;;;10.93;52.03;96819.44;5094463;28;20052;-74
2021/04/01 01:18:27;;;;;;;7.88;5.40;;;;;;;10.91;52.24;96820.69;5075204;28;20048;-74
2021/04/01 01:21:00;;;;;;;5.43;4.90;;;;;;;10.87;52.75;96814.25;5094086;28;20055;-75
2021/04/01 01:23:27;;;;;;;5.80;4.82;;;;;;;10.81;52.42;96810.63;5094063;28;20046;-74
2021/04/01 01:25:58;;;;;;;6.45;5.20;;;;;;;10.77;52.98;96820.75;5094109;28;20399;-75
2021/04/01 01:28:24;;;;;;;6.53;4.80;;;;;;;10.74;52.81;96808.03;5094076;28;20062;-74
2021/04/01 01:30:51;;;;;;;8.98;5.00;;;;;;;10.70;52.75;96817.34;5093709;28;20031;-74
2021/04/01 01:33:23;;;;;;;6.35;4.90;;;;;;;10.64;53.05;96814.75;5093939;28;20491;-74
2021/04/01 01:35:52;;;;;;;6.78;5.03;;;;;;;10.60;52.83;96814.38;5094047;28;20040;-74
2021/04/01 01:38:19;;;;;;;8.88;5.82;;;;;;;10.54;53.18;96812.56;5093761;28;20032;-74
2021/04/01 01:40:45;;;;;;;5.60;4.45;;;;;;;10.48;53.21;96814.22;5093012;28;20051;-75
2021/04/01 01:43:15;;;;;;;7.35;4.88;;;;;;;10.44;53.50;96814.84;5093865;28;20036;-74
2021/04/01 01:45:43;;;;;;;7.25;5.15;;;;;;;10.38;53.58;96811.25;5075431;28;20036;-74
2021/04/01 01:48:09;;;;;;;5.93;4.88;;;;;;;10.32;53.50;96818.09;5093653;28;20036;-74
2021/04/01 01:50:37;;;;;;;5.93;4.78;;;;;;;10.26;53.68;96807.63;5093718;28;20036;-74
2021/04/01 01:53:06;;;;;;;7.63;5.35;;;;;;;10.20;53.75;96811.06;5093374;28;20043;-74
2021/04/01 01:55:34;;;;;;;5.35;4.40;;;;;;;10.14;54.06;96808.25;5093509;28;20396;-74
2021/04/01 01:58:01;;;;;;;5.45;4.93;;;;;;;10.11;53.95;96808.66;5093504;28;20047;-74
2021/04/01 02:00:30;;;;;;;6.88;4.82;;;;;;;10.09;54.08;96804.63;5093920;28;20043;-74
2021/04/01 02:02:59;;;;;;;6.65;4.82;;;;;;;10.05;54.33;96800.81;5093142;28;20036;-74
2021/04/01 02:05:27;;;;;;;4.97;4.45;;;;;;;10.03;54.50;96794.97;5093251;28;20036;-74
2021/04/01 02:07:54;;;;;;;4.80;4.18;;;;;;;10.02;54.43;96798.63;5092419;28;20047;-74
2021/04/01 02:10:26;;;;;;;7.35;4.60;;;;;;;9.99;54.77;96797.19;5093321;28;20413;-74
2021/04/01 02:12:54;;;;;;;5.30;4.15;;;;;;;9.96;54.70;96789.75;5093699;28;20047;-74
2021/04/01 02:15:24;;;;;;;9.63;4.28;;;;;;;9.96;55.23;96787.13;5092933;28;20530;-74
2021/04/01 02:17:51;;;;;;;6.45;4.53;;;;;;;9.96;54.99;96785.31;5093438;28;20476;-75
2021/04/01 02:20:18;;;;;;;5.68;4.50;;;;;;;9.98;55.23;96779.09;5092629;28;20052;-75
2021/04/01 02:22:44;;;;;;;6.45;4.50;;;;;;;9.98;55.35;96776.47;5092961;28;20047;-74
2021/04/01 02:25:11;;;;;;;5.68;3.97;;;;;;;9.99;55.25;96780.69;5093456;28;20384;-74
2021/04/01 02:27:37;;;;;;;5.75;4.40;;;;;;;10.00;55.46;96783.09;5093004;28;20465;-74
2021/04/01 02:30:05;;;;;;;4.22;3.83;;;;;;;10.00;55.57;96782.31;5093118;28;20043;-74
2021/04/01 02:32:31;;;;;;;5.13;3.90;;;;;;;10.00;55.56;96779.69;5092955;28;20036;-74
2021/04/01 02:34:57;;;;;;;6.32;4.20;;;;;;;9.98;55.60;96781.69;5093193;28;20397;-74
2021/04/01 02:37:23;;;;;;;5.72;4.85;;;;;;;9.96;55.55;96774.84;5092115;28;20044;-74
2021/04/01 02:39:49;;;;;;;6.28;4.30;;;;;;;9.92;55.60;96773.63;5093424;28;20396;-74
2021/04/01 02:42:15;;;;;;;7.32;4.30;;;;;;;9.84;55.78;96776.47;5093016;28;20396;-74
2021/04/01 02:44:42;;;;;;;7.07;4.15;;;;;;;9.81;55.90;96774.28;5075185;28;20040;-74
2021/04/01 02:47:08;;;;;;;5.20;4.38;;;;;;;9.80;55.89;96771.84;5092928;28;20036;-74
2021/04/01 02:49:34;;;;;;;5.30;3.83;;;;;;;9.76;55.98;96774.06;5092744;28;20040;-74
2021/04/01 02:52:00;;;;;;;8.48;4.95;;;;;;;9.73;56.11;96772.66;5093377;28;20051;-74
2021/04/01 02:54:26;;;;;;;6.72;4.05;;;;;;;9.71;56.35;96774.69;5092775;28;20028;-74
2021/04/01 02:56:52;;;;;;;4.15;3.72;;;;;;;9.70;56.30;96769.66;5093181;28;20047;-74
2021/04/01 02:59:19;;;;;;;5.78;3.83;;;;;;;9.68;56.28;96769.03;5092757;28;20102;-74
2021/04/01 03:01:45;;;;;;;6.60;3.97;;;;;;;9.64;56.39;96767.84;5092790;28;20396;-75
2021/04/01 03:04:11;;;;;;;4.72;3.90;;;;;;;9.62;56.36;96762.03;5093248;28;20032;-75
2021/04/01 03:06:38;;;;;;;8.23;3.90;;;;;;;9.61;56.80;96760.41;5092624;28;20036;-74
2021/04/01 03:09:04;;;;;;;4.00;3.60;;;;;;;9.59;56.74;96759.78;5092252;28;20035;-74
2021/04/01 03:11:31;;;;;;;5.25;4.22;;;;;;;9.57;56.54;96765.22;5092589;28;20468;-74
2021/04/01 03:13:57;;;;;;;4.60;3.70;;;;;;;9.55;56.75;96764.63;5092487;28;20365;-74
2021/04/01 03:16:24;;;;;;;4.80;3.53;;;;;;;9.51;56.80;96764.25;5092857;28;20056;-74
2021/04/01 03:18:51;;;;;;;8.13;3.92;;;;;;;9.52;56.80;96770.28;5095217;28;20036;-74
2021/04/01 03:21:17;;;;;;;3.88;3.47;;;;;;;9.50;56.93;96769.69;5083872;28;20039;-74
2021/04/01 03:23:43;;;;;;;4.13;3.65;;;;;;;9.47;56.90;96768.28;5096432;28;20047;-74
2021/04/01 03:26:10;;;;;;;4.72;3.53;;;;;;;9.43;57.05;96764.44;5078289;28;20051;-74
2021/04/01 03:28:36;;;;;;;5.18;3.97;;;;;;;9.41;57.18;96765.63;5096617;28;20035;-74
2021/04/01 03:31:05;;;;;;;6.68;3.92;;;;;;;9.38;57.45;96766.84;5096030;28;20469;-74
2021/04/01 03:33:32;;;;;;;5.20;4.03;;;;;;;9.35;57.07;96762.03;5096119;28;20495;-74
2021/04/01 03:35:59;;;;;;;5.93;3.72;;;;;;;9.31;57.27;96759.00;5096043;28;20040;-74
2021/04/01 03:38:26;;;;;;;4.03;3.65;;;;;;;9.28;57.23;96761.22;5096016;28;20040;-74
2021/04/01 03:40:53;;;;;;;4.53;3.88;;;;;;;9.25;57.56;96762.44;5096125;28;20491;-74
2021/04/01 03:43:21;;;;;;;6.45;4.00;;;;;;;9.21;57.50;96757.81;5095669;28;20051;-74
2021/04/01 03:45:47;;;;;;;6.43;4.05;;;;;;;9.15;57.55;96764.63;5095975;28;20055;-74
2021/04/01 03:48:14;;;;;;;4.40;3.63;;;;;;;9.11;57.67;96758.19;5095717;28;20043;-74
2021/04/01 03:50:40;;;;;;;4.05;3.65;;;;;;;9.05;57.66;96761.63;5095652;28;20044;-74
2021/04/01 03:53:06;;;;;;;5.57;3.65;;;;;;;9.02;57.82;96762.81;5095931;28;20039;-74
2021/04/01 03:55:40;;;;;;;5.30;3.80;;;;;;;8.99;57.90;96757.19;5095815;28;20032;-74
2021/04/01 04:00:37;;;;;;;5.97;4.10;;;;;;;8.96;58.15;96766.22;5085940;28;20048;-74
2021/04/01 04:05:41;;;;;;;4.68;3.75;;;;;;;8.92;57.98;96765.03;5095987;28;20039;-75
2021/04/01 04:15:40;;;;;;;4.13;3.35;;;;;;;8.72;58.30;96759.78;5095481;28;20048;-74
2021/04/01 04:18:07;;;;;;;5.07;3.58;;;;;;;8.68;58.49;96755.94;5094475;28;20063;-74
2021/04/01 04:20:33;;;;;;;5.88;3.60;;;;;;;8.65;58.60;96759.75;5095406;28;20047;-74
2021/04/01 04:22:59;;;;;;;4.65;4.10;;;;;;;8.65;58.66;96756.31;5095174;28;20059;-74
2021/04/01 04:25:26;;;;;;;4.72;3.88;;;;;;;8.62;58.61;96749.69;5095079;28;20047;-75
2021/04/01 04:30:24;;;;;;;5.07;3.95;;;;;;;8.58;58.84;96751.06;5094080;28;20399;-74
2021/04/01 04:32:50;;;;;;;4.85;3.88;;;;;;;8.54;58.81;96750.66;5095223;28;20036;-74
2021/04/01 04:35:17;;;;;;;4.45;3.60;;;;;;;8.53;58.73;96750.88;5094914;28;20043;-74
2021/04/01 04:37:43;;;;;;;5.38;3.90;;;;;;;8.52;58.97;96752.69;5094819;28;20044;-75
2021/04/01 04:40:10;;;;;;;4.32;3.72;;;;;;;8.52;59.10;96755.31;5077638;28;20036;-74
2021/04/01 04:42:37;;;;;;;5.68;3.97;;;;;;;8.51;59.08;96747.66;5094954;28;20388;-74
2021/04/01 04:45:05;;;;;;;4.88;3.80;;;;;;;8.47;59.10;96752.47;5094798;28;20052;-74
2021/04/01 04:47:32;;;;;;;5.88;3.60;;;;;;;8.44;59.15;96754.66;5094664;28;20032;-74
2021/04/01 04:49:58;;;;;;;4.72;3.70;;;;;;;8.39;59.24;96762.25;5094691;28;20051;-74
2021/04/01 04:52:28;;;;;;;5.00;3.83;;;;;;;8.35;59.32;96759.22;5095175;28;20039;-74
2021/04/01 04:54:54;;;;;;;4.47;3.58;;;;;;;8.33;59.37;96756.00;5094823;28;20480;-74
2021/04/01 04:57:41;;;;;;;6.88;3.78;;;;;;;8.33;59.45;96761.22;5094584;28;20032;-74
2021/04/01 05:05:26;;;;;;;3.70;3.40;;;;;;;8.24;59.48;96765.03;5093855;28;20044;-74
2021/04/01 05:07:53;;;;;;;4.70;3.90;;;;;;;8.22;59.55;96769.63;5094459;28;20468;-74
2021/04/01 05:10:19;;;;;;;5.53;3.67;;;;;;;8.20;59.65;96769.81;5094673;28;20039;-74
2021/04/01 05:12:50;;;;;;;6.63;3.90;;;;;;;8.20;59.73;96771.63;5093876;28;20048;-74
2021/04/01 05:15:16;;;;;;;5.90;4.28;;;;;;;8.21;59.84;96775.84;5094305;28;20056;-74
2021/04/01 05:17:42;;;;;;;5.35;3.92;;;;;;;8.21;59.71;96770.63;5094215;28;20035;-74
2021/04/01 05:20:11;;;;;;;4.38;3.97;;;;;;;8.24;59.81;96776.25;5093126;28;20040;-74
2021/04/01 05:23:02;;;;;;;5.43;3.60;;;;;;;8.25;59.83;96775.28;5094356;28;20028;-74
2021/04/01 05:25:28;;;;;;;5.15;4.07;;;;;;;8.26;59.88;96771.66;5093835;28;20417;-74
2021/04/01 05:27:59;;;;;;;5.60;4.00;;;;;;;8.28;59.63;96780.09;5093791;28;20047;-75
2021/04/01 05:30:25;;;;;;;6.90;4.50;;;;;;;8.28;59.84;96780.09;5094504;28;20392;-74
2021/04/01 05:32:52;;;;;;;5.05;3.88;;;;;;;8.31;59.96;96774.47;5093684;28;20040;-74
2021/04/01 05:35:18;;;;;;;6.78;3.90;;;;;;;8.37;60.21;96772.91;5093207;28;20051;-74
2021/04/01 05:37:45;;;;;;;5.13;3.92;;;;;;;8.52;60.06;96772.78;5093989;28;20048;-74
2021/04/01 05:40:14;;;;;;;5.50;3.72;;;;;;;8.81;60.26;96783.91;5093585;28;20090;-74
2021/04/01 05:42:45;;;;;;;5.40;4.20;;;;;;;9.14;60.25;96776.13;5093380;28;20152;-74
2021/04/01 05:45:21;;;;;;;6.68;4.22;;;;;;;9.50;59.85;96780.94;5093739;28;20481;-75
2021/04/01 05:47:56;;;;;;;5.82;4.40;;;;;;;9.93;59.57;96782.28;5093737;28;20043;-74
2021/04/01 06:04:21;;;;;;;6.10;4.20;;;;;;;12.39;53.04;96751.69;5093465;28;20483;-74
2021/04/01 06:06:56;;;;;;;5.53;3.83;;;;;;;12.82;54.39;96765.69;5093460;28;20044;-74
2021/04/01 06:09:27;;;;;;;8.27;3.80;;;;;;;13.19;53.50;96761.09;5093284;28;20040;-74
2021/04/01 06:11:55;;;;;;;5.05;3.83;;;;;;;13.48;52.54;96750.75;5093250;28;20052;-74
2021/04/01 06:14:50;;;;;;;6.55;3.85;;;;;;;13.64;48.62;96724.72;5080214;28;20040;-74
2021/04/01 06:17:19;;;;;;;4.63;3.97;;;;;;;13.33;50.42;96742.47;5090440;28;20434;-74
2021/04/01 06:19:48;;;;;;;4.45;3.72;;;;;;;13.00;50.30;96747.22;5092573;28;20066;-74
2021/04/01 06:22:17;;;;;;;4.40;3.67;;;;;;;12.74;50.73;96743.13;5093396;28;20032;-74
2021/04/01 06:24:44;;;;;;;5.13;3.20;;;;;;;12.93;50.99;96749.13;5092195;28;20055;-74
2021/04/01 06:27:41;;;;;;;6.07;4.20;;;;;;;13.48;48.95;96734.94;5093238;28;20028;-74
2021/04/01 06:33:16;;;;;;;4.53;3.58;;;;;;;14.28;48.52;96722.91;4991493;28;20078;-74
2021/04/01 06:35:47;;;;;;;4.72;3.78;;;;;;;14.69;48.49;96728.16;5073571;28;20036;-75
2021/04/01 06:40:48;;;;;;;4.35;3.47;;;;;;;15.53;45.52;96708.91;5093075;28;20065;-75
2021/04/01 06:43:17;;;;;;;4.43;3.47;;;;;;;15.72;45.10;96712.91;5092800;28;20044;-75
2021/04/01 06:46:07;;;;;;;8.98;4.32;;;;;;;15.24;44.02;96709.00;5093058;28;20043;-74
2021/04/01 06:51:15;;;;;;;5.10;3.80;;;;;;;14.24;46.04;96737.59;5093151;28;20032;-75
2021/04/01 06:53:55;;;;;;;7.65;4.00;;;;;;;14.25;46.56;96743.66;5095128;28;20396;-75
2021/04/01 06:59:05;;;;;;;6.32;3.80;;;;;;;13.75;46.71;96745.00;5095945;28;20094;-75
2021/04/01 07:01:43;;;;;;;5.28;4.10;;;;;;;13.46;47.27;96741.44;5096896;28;20056;-74
2021/04/01 07:04:10;;;;;;;9.48;4.45;;;;;;;13.26;47.64;96757.56;5096707;28;20028;-74
2021/04/01 07:06:39;;;;;;;7.05;4.32;;;;;;;13.06;47.93;96745.53;5096920;28;20039;-74
2021/04/01 07:09:38;;;;;;;7.38;3.88;;;;;;;12.91;48.86;96761.72;5096821;28;20028;-74
2021/04/01 07:12:21;;;;;;;6.68;4.35;;;;;;;12.96;49.28;96764.47;5096621;28;20494;-75
2021/04/01 07:14:50;;;;;;;5.65;4.47;;;;;;;12.99;48.77;96765.84;5096292;28;20052;-75
2021/04/01 07:17:26;;;;;;;6.10;3.88;;;;;;;13.11;48.78;96756.16;5096763;28;20051;-75
2021/04/01 07:20:48;;;;;;;10.52;4.50;;;;;;;13.37;48.90;96751.53;5096475;28;20404;-74
2021/04/01 07:47:36;;;;;;;5.05;3.70;;;;;;;14.52;47.25;96720.97;5084750;28;20400;-75
2021/04/01 07:50:11;;;;;;;5.78;3.63;;;;;;;15.20;45.84;96713.97;5094734;28;20040;-75
2021/04/01 07:52:39;;;;;;;4.95;3.92;;;;;;;15.64;46.03;96731.78;5095386;28;20040;-75
2021/04/01 08:09:45;;;;;;;7.68;3.67;;;;;;;16.08;44.90;96737.16;5026940;28;20096;-75
2021/04/01 08:12:27;;;;;;;4.28;3.50;;;;;;;15.99;43.72;96730.72;5092531;28;20048;-75
2021/04/01 08:15:09;;;;;;;5.85;3.22;;;;;;;16.08;43.83;96726.56;5095305;28;20488;-75
2021/04/01 08:18:22;;;;;;;8.45;3.65;;;;;;;16.41;44.47;96735.44;5095132;28;20056;-75
2021/04/01 08:20:31;;;;;;;10.13;4.28;;;;;;;16.47;44.26;96736.31;5081822;28;20044;-75
2021/04/01 08:25:36;;;;;;;8.35;3.72;;;;;;;16.92;43.17;96725.38;5095132;28;20032;-75
2021/04/01 08:31:32;;;;;;;6.38;3.47;;;;;;;17.00;42.53;96732.09;5087705;28;20396;-75
2021/04/01 08:36:50;;;;;;;5.50;3.30;;;;;;;17.13;42.28;96730.88;5094923;28;20046;-75
2021/04/01 08:39:19;;;;;;;7.95;3.70;;;;;;;16.95;42.65;96735.50;5094917;28;20483;-75
2021/04/01 08:42:22;;;;;;;;;;;;;;;;;;;;;
2021/04/01 08:49:11;;;;;;;7.25;3.60;;;;;;;17.58;41.92;96719.81;4999408;28;20494;-75
2021/04/01 08:52:03;;;;;;;5.05;3.53;;;;;;;17.79;40.54;96712.75;5084092;28;20027;-75
2021/04/01 08:54:40;;;;;;;11.32;3.55;;;;;;;18.03;40.51;96707.84;5094563;28;20349;-75
2021/04/01 08:57:46;;;;;;;6.05;3.42;;;;;;;18.42;40.33;96709.34;5085415;28;20048;-75
2021/04/01 09:00:16;;;;;;;4.97;3.50;;;;;;;18.65;40.12;96708.06;5080753;28;20050;-75
2021/04/01 09:02:51;;;;;;;8.30;3.80;;;;;;;18.86;39.44;96708.94;5082942;28;20063;-75
2021/04/01 09:05:19;;;;;;;5.47;3.65;;;;;;;19.10;39.58;96709.19;5094770;28;20036;-75
2021/04/01 09:08:00;;;;;;;4.40;3.75;;;;;;;18.97;39.13;96707.06;5094273;28;20032;-75
2021/04/01 09:10:38;;;;;;;5.32;3.40;;;;;;;18.77;39.34;96707.81;5094478;28;20024;-75
2021/04/01 09:13:21;;;;;;;7.72;3.45;;;;;;;18.57;39.60;96708.59;5094392;28;20491;-75
2021/04/01 09:16:10;;;;;;;8.05;4.22;;;;;;;18.62;39.79;96701.41;5093678;28;20056;-75
2021/04/01 09:18:37;;;;;;;6.68;3.63;;;;;;;18.95;39.56;96694.03;5085861;28;20051;-75
2021/04/01 09:21:05;;;;;;;5.60;3.70;;;;;;;19.24;39.56;96691.66;5093954;28;20456;-75
2021/04/01 09:23:54;;;;;;;7.20;3.67;;;;;;;19.42;38.97;96689.50;5093950;28;20043;-75
2021/04/01 09:26:25;;;;;;;7.82;3.65;;;;;;;19.43;38.90;96689.22;5094386;28;20039;-75
2021/04/01 09:29:03;;;;;;;5.95;2.90;;;;;;;19.40;39.24;96683.63;5093981;28;20404;-75
2021/04/01 09:31:36;;;;;;;4.45;3.55;;;;;;;19.40;39.13;96688.97;5075753;28;20035;-75
2021/04/01 09:34:05;;;;;;;5.88;3.35;;;;;;;19.35;39.41;96684.44;5093936;28;20063;-75
2021/04/01 09:36:43;;;;;;;6.78;3.75;;;;;;;19.29;38.52;96674.88;5093618;28;20027;-75
2021/04/01 09:41:49;;;;;;;6.20;3.80;;;;;;;19.24;39.60;96680.22;5093850;28;20051;-75
2021/04/01 09:44:16;;;;;;;7.82;3.53;;;;;;;19.21;39.56;96681.56;5092759;28;20416;-75
2021/04/01 09:47:04;;;;;;;5.63;3.63;;;;;;;19.30;40.25;96681.00;5092446;28;20051;-75
2021/04/01 09:49:44;;;;;;;5.55;3.50;;;;;;;19.40;39.73;96678.31;5075479;28;20407;-75
2021/04/01 09:52:14;;;;;;;3.65;2.95;;;;;;;19.38;39.95;96675.13;5093824;28;20476;-74
2021/04/01 09:54:53;;;;;;;6.55;3.45;;;;;;;19.45;39.47;96675.66;5093418;28;20035;-75
2021/04/01 09:57:25;;;;;;;8.00;3.67;;;;;;;19.52;39.70;96676.19;5093646;28;20043;-75
2021/04/01 10:00:08;;;;;;;6.82;3.10;;;;;;;19.70;39.66;96677.50;5093668;28;20043;-75
2021/04/01 10:02:35;;;;;;;5.18;3.35;;;;;;;19.93;39.25;96667.31;5077961;28;20036;-75
2021/04/01 10:05:04;;;;;;;4.85;3.00;;;;;;;20.17;38.69;96670.13;5093415;28;20400;-75
2021/04/01 10:07:33;;;;;;;6.70;3.10;;;;;;;20.41;38.60;96667.59;5092217;28;20040;-75
2021/04/01 10:10:01;;;;;;;3.20;2.70;;;;;;;20.56;38.22;96658.75;5093396;28;20415;-75
2021/04/01 10:12:38;;;;;;;3.70;2.75;;;;;;;20.79;36.77;96652.75;5093878;28;20040;-75
2021/04/01 10:15:12;;;;;;;4.10;2.75;;;;;;;21.01;37.56;96659.50;5093328;28;20040;-75
2021/04/01 10:17:39;;;;;;;4.70;2.53;;;;;;;21.23;37.22;96651.84;5093412;28;20122;-75
2021/04/01 10:20:07;;;;;;;5.45;2.70;;;;;;;21.53;36.66;96649.19;5093301;28;20043;-75
2021/04/01 10:22:36;;;;;;;3.78;1.85;;;;;;;21.82;36.54;96651.81;5093073;28;20044;-75
2021/04/01 10:25:22;;;;;;;5.43;2.08;;;;;;;22.03;34.50;96652.34;5093299;28;20043;-75
2021/04/01 10:27:54;;;;;;;2.40;1.92;;;;;;;22.10;35.28;96655.44;5093992;28;20036;-75
2021/04/01 10:30:22;;;;;;;3.45;2.00;;;;;;;22.19;34.37;96658.28;5096127;28;20040;-75
2021/04/01 10:33:00;;;;;;;3.78;2.00;;;;;;;22.23;32.88;96654.78;5097200;28;20043;-75
2021/04/01 10:35:28;;;;;;;4.03;2.08;;;;;;;22.42;33.35;96651.31;5079188;28;20055;-74
2021/04/01 10:37:57;;;;;;;4.38;2.33;;;;;;;22.71;33.32;96643.13;5097350;28;20047;-74
2021/04/01 10:40:24;;;;;;;4.13;2.30;;;;;;;22.92;32.82;96630.25;5097020;28;20054;-74
2021/04/01 10:43:05;;;;;;;4.70;2.30;;;;;;;23.11;31.81;96624.88;5097122;28;20040;-74
2021/04/01 10:45:34;;;;;;;5.13;2.22;;;;;;;23.34;32.14;96617.78;5096118;28;20052;-74
2021/04/01 10:48:25;;;;;;;2.13;1.92;;;;;;;23.59;32.06;96618.38;5081483;28;20047;-74
2021/04/01 10:50:53;;;;;;;2.50;2.30;;;;;;;23.75;31.99;96614.31;5096950;28;20028;-74
2021/04/01 10:53:25;;;;;;;2.83;2.20;;;;;;;23.86;30.65;96606.91;5096595;28;20623;-74
2021/04/01 10:55:52;;;;;;;4.53;2.25;;;;;;;23.83;31.52;96602.13;5097484;28;20032;-74
2021/04/01 10:58:18;;;;;;;3.13;2.10;;;;;;;23.93;31.56;96601.94;5096749;28;20050;-74
2021/04/01 11:00:54;;;;;;;4.28;2.10;;;;;;;24.04;31.42;96589.09;5096152;28;20052;-74
2021/04/01 11:03:30;;;;;;;3.47;1.85;;;;;;;24.36;30.20;96590.00;5096623;28;20491;-74
2021/04/01 11:05:57;;;;;;;2.80;1.90;;;;;;;24.62;30.89;96583.00;5096792;28;20036;-74
2021/04/01 11:08:25;;;;;;;4.95;1.80;;;;;;;24.81;30.40;96587.38;5095446;28;20040;-74
2021/04/01 11:11:00;;;;;;;3.13;1.80;;;;;;;24.85;29.66;96577.63;5096779;28;20043;-74
2021/04/01 11:13:37;;;;;;;4.20;1.95;;;;;;;24.81;29.09;96573.97;5096339;28;20047;-74
2021/04/01 11:16:09;;;;;;;4.18;2.42;;;;;;;24.88;29.41;96577.81;5096598;28;20503;-74
2021/04/01 11:18:38;;;;;;;5.50;2.08;;;;;;;24.74;29.51;96570.91;5095616;28;20048;-74
2021/04/01 11:21:06;;;;;;;4.28;2.03;;;;;;;24.86;29.69;96580.00;5096890;28;20042;-74
2021/04/01 11:23:34;;;;;;;4.05;1.60;;;;;;;24.93;29.42;96571.50;5095280;28;20040;-74
2021/04/01 11:26:02;;;;;;;2.58;1.80;;;;;;;24.88;28.92;96571.63;5096319;28;20039;-74
2021/04/01 11:28:50;;;;;;;2.58;1.73;;;;;;;24.81;28.59;96561.34;5096700;28;20024;-74
2021/04/01 11:31:22;;;;;;;4.15;1.90;;;;;;;25.02;28.45;96560.81;5096383;28;20040;-72
2021/04/01 11:33:51;;;;;;;4.43;2.13;;;;;;;25.18;28.60;96566.56;5096185;28;20036;-72
2021/04/01 11:36:20;;;;;;;4.15;2.10;;;;;;;25.42;28.68;96560.84;5096107;28;20043;-72
2021/04/01 11:38:53;;;;;;;7.72;2.03;;;;;;;25.60;28.10;96559.00;5095481;28;20499;-74
2021/04/01 11:41:21;;;;;;;4.50;1.80;;;;;;;25.81;28.11;96554.66;5087007;28;20046;-74
2021/04/01 11:43:53;;;;;;;2.70;1.90;;;;;;;25.89;27.80;96558.47;5095602;28;20044;-74
2021/04/01 11:46:25;;;;;;;4.95;1.95;;;;;;;25.92;27.44;96549.78;5096071;28;20044;-74
2021/04/01 11:48:53;;;;;;;5.60;2.17;;;;;;;26.09;27.64;96549.78;5080034;28;20053;-74
2021/04/01 11:51:25;;;;;;;2.13;1.63;;;;;;;26.17;26.95;96544.75;5095916;28;20043;-74
2021/04/01 11:53:51;;;;;;;3.22;1.80;;;;;;;26.11;27.19;96534.13;5095866;28;20036;-74
2021/04/01 11:56:22;;;;;;;4.20;1.98;;;;;;;26.12;26.55;96537.59;5096397;28;20032;-74
2021/04/01 11:58:49;;;;;;;3.97;1.60;;;;;;;26.06;27.24;96539.69;5095599;28;20404;-74
2021/04/01 12:01:36;;;;;;;4.47;1.88;;;;;;;25.85;27.30;96530.59;5095449;28;20032;-75
2021/04/01 12:04:10;;;;;;;3.80;1.63;;;;;;;25.42;27.21;96534.00;5095978;28;20044;-74
2021/04/01 12:06:37;;;;;;;2.30;1.63;;;;;;;25.12;27.72;96534.50;5095938;28;20039;-74
2021/04/01 12:09:04;;;;;;;2.95;1.80;;;;;;;24.86;27.75;96529.03;5095899;28;20039;-74
2021/04/01 12:11:44;;;;;;;2.47;1.70;;;;;;;24.95;28.04;96530.94;5095294;28;20035;-75
2021/04/01 12:14:12;;;;;;;2.47;1.70;;;;;;;25.35;27.90;96526.41;5094976;28;20484;-75
2021/04/01 12:16:39;;;;;;;3.05;1.58;;;;;;;25.64;27.35;96517.00;5094791;28;20070;-75
2021/04/01 12:19:06;;;;;;;1.60;1.42;;;;;;;25.81;27.24;96518.94;5095479;28;20055;-74
2021/04/01 12:21:33;;;;;;;2.65;1.67;;;;;;;25.78;26.84;96512.28;5094264;28;20036;-74
2021/04/01 12:24:02;;;;;;;3.05;1.77;;;;;;;25.58;26.67;96510.22;5094969;28;20045;-74
2021/04/01 12:26:30;;;;;;;4.50;1.80;;;;;;;25.38;26.52;96500.84;5095237;28;20039;-75
2021/04/01 12:28:58;;;;;;;4.25;1.70;;;;;;;25.47;26.83;96507.81;5095127;28;20036;-75
2021/04/01 12:31:41;;;;;;;3.35;1.55;;;;;;;25.77;25.88;96496.50;5094831;28;20495;-74
2021/04/01 12:34:11;;;;;;;2.13;1.60;;;;;;;25.71;26.05;96495.84;5095332;28;20040;-75
2021/04/01 12:36:47;;;;;;;1.60;1.20;;;;;;;25.46;25.73;96492.00;5095093;28;20048;-74
2021/04/01 12:39:13;;;;;;;187.43;25.30;;;;;;;25.22;26.24;96500.47;5094891;28;20392;-74
2021/04/01 12:41:43;;;;;;;80.20;10.50;;;;;;;25.12;25.93;96502.31;5094657;28;20036;-74
2021/04/01 12:44:09;;;;;;;5.57;1.88;;;;;;;25.27;25.87;96490.38;5094487;28;20036;-74
2021/04/01 12:46:38;;;;;;;29.70;5.97;;;;;;;25.45;25.36;96483.16;5094966;28;20040;-75
2021/04/01 12:49:05;;;;;;;5.80;1.40;;;;;;;25.35;25.60;96483.47;5094579;28;20126;-75
2021/04/01 12:51:56;;;;;;;7.07;2.08;;;;;;;25.32;24.75;96486.75;5092752;28;20419;-74
2021/04/01 12:54:27;;;;;;;4.55;1.30;;;;;;;25.47;24.84;96480.16;5094618;28;20040;-75
2021/04/01 12:57:00;;;;;;;3.88;1.38;;;;;;;25.63;24.65;96475.13;5094970;28;20036;-75
2021/04/01 12:59:38;;;;;;;2.90;1.30;;;;;;;25.77;23.47;96464.25;5094589;28;20040;-75
2021/04/01 13:02:15;;;;;;;3.00;1.25;;;;;;;25.96;23.65;96466.66;5094347;28;20495;-75
2021/04/01 13:04:44;;;;;;;1.08;0.95;;;;;;;26.03;23.55;96467.75;5094698;28;20036;-75
2021/04/01 13:12:25;;;;;;;1.90;0.93;;;;;;;26.16;22.74;96459.81;5094155;28;20027;-76
2021/04/01 13:14:52;;;;;;;2.13;0.95;;;;;;;26.23;22.53;96469.00;5094061;28;20475;-74
2021/04/01 13:17:18;;;;;;;1.63;1.00;;;;;;;26.21;21.89;96457.78;5093919;28;20489;-75
2021/04/01 13:19:45;;;;;;;1.90;1.10;;;;;;;26.31;22.06;96456.63;5094212;28;20119;-75
2021/04/01 13:22:29;;;;;;;2.13;1.00;;;;;;;26.39;21.96;96450.44;5094129;28;20047;-74
2021/04/01 13:25:08;;;;;;;1.55;0.98;;;;;;;26.39;21.83;96455.81;5085346;28;20044;-75
2021/04/01 13:27:36;;;;;;;2.90;1.33;;;;;;;26.40;21.51;96453.94;5093033;28;20044;-77
2021/04/01 13:30:08;;;;;;;1.13;0.90;;;;;;;26.40;21.28;96454.75;5075216;28;20047;-76
2021/04/01 13:33:32;;;;;;;1.25;1.00;;;;;;;26.52;21.42;96444.09;5094306;28;20036;-77
2021/04/01 13:35:41;;;;;;;1.17;1.05;;;;;;;26.66;21.30;96438.53;5077674;28;20393;-77
2021/04/01 13:38:14;;;;;;;2.28;1.20;;;;;;;26.60;21.36;96439.81;5094360;28;20384;-77
2021/04/01 13:40:45;;;;;;;1.15;1.05;;;;;;;26.44;21.34;96453.00;5078642;28;20480;-76
2021/04/01 13:43:14;;;;;;;3.58;1.17;;;;;;;26.21;21.22;96436.28;5093647;28;20066;-76